createdAt,value
2023-04-15T00:00:57.756Z,2.25
2023-04-15T00:03:25.158Z,1.00
2023-04-15T00:06:18.889Z,3.50
2023-04-15T00:09:08.580Z,3.50
2023-04-15T00:12:07.260Z,3.00
2023-04-15T00:14:49.916Z,2.00
2023-04-15T00:17:38.429Z,1.00
2023-04-15T00:20:30.738Z,1.00
2023-04-15T00:23:10.715Z,2.00
2023-04-15T00:25:37.605Z,2.00
2023-04-15T00:28:04.642Z,2.50
2023-04-15T00:30:31.779Z,2.00
2023-04-15T00:32:58.720Z,1.50
2023-04-15T00:35:25.953Z,2.00
2023-04-15T00:37:52.877Z,1.00
2023-04-15T00:40:21.287Z,1.00
2023-04-15T00:42:48.457Z,0.50
2023-04-15T00:45:15.962Z,0.75
2023-04-15T00:47:44.811Z,0.50
2023-04-15T00:50:12.950Z,0.75
2023-04-15T00:52:40.983Z,0.00
2023-04-15T00:55:09.063Z,0.00
2023-04-15T00:57:36.765Z,0.00
2023-04-15T01:00:05.841Z,1.00
2023-04-15T01:02:33.819Z,1.00
2023-04-15T01:05:00.864Z,0.50
2023-04-15T01:07:57.948Z,0.50
2023-04-15T01:10:48.154Z,0.00
2023-04-15T01:13:40.683Z,1.00
2023-04-15T01:16:30.578Z,0.25
2023-04-15T01:19:17.386Z,1.00
2023-04-15T01:22:07.069Z,0.00
2023-04-15T01:24:36.114Z,0.00
2023-04-15T01:27:03.646Z,0.50
2023-04-15T01:29:32.034Z,1.50
2023-04-15T01:31:59.280Z,1.00
2023-04-15T01:34:26.232Z,0.50
2023-04-15T01:36:53.098Z,1.00
2023-04-15T01:39:20.061Z,0.00
2023-04-15T01:41:46.957Z,0.00
2023-04-15T01:44:13.916Z,0.00
2023-04-15T01:46:40.875Z,1.00
2023-04-15T01:49:09.212Z,0.00
2023-04-15T01:51:36.151Z,0.00
2023-04-15T01:54:03.103Z,2.00
2023-04-15T01:56:30.088Z,2.00
2023-04-15T01:58:57.199Z,2.00
2023-04-15T02:01:24.190Z,0.50
2023-04-15T02:03:51.156Z,1.00
2023-04-15T02:06:18.573Z,4.00
2023-04-15T02:08:45.515Z,7.00
2023-04-15T02:11:12.399Z,4.00
2023-04-15T02:13:39.343Z,8.00
2023-04-15T02:16:16.866Z,8.00
2023-04-15T02:18:45.666Z,6.00
2023-04-15T02:21:12.844Z,4.25
2023-04-15T02:23:39.751Z,4.00
2023-04-15T02:26:06.899Z,2.00
2023-04-15T02:28:33.816Z,2.25
2023-04-15T02:31:01.931Z,2.00
2023-04-15T02:33:28.868Z,1.00
2023-04-15T02:35:55.862Z,2.00
2023-04-15T02:38:22.821Z,2.00
2023-04-15T02:40:50.581Z,5.00
2023-04-15T02:43:17.865Z,4.75
2023-04-15T02:45:46.434Z,4.00
2023-04-15T02:48:13.542Z,4.50
2023-04-15T02:50:41.176Z,4.00
2023-04-15T02:53:08.188Z,4.00
2023-04-15T02:55:35.212Z,3.50
2023-04-15T02:58:02.218Z,3.00
2023-04-15T03:00:29.160Z,3.50
2023-04-15T03:03:02.653Z,2.00
2023-04-15T03:05:29.775Z,3.00
2023-04-15T03:07:56.703Z,8.00
2023-04-15T03:10:23.653Z,8.00
2023-04-15T03:12:50.618Z,6.00
2023-04-15T03:15:17.657Z,4.00
2023-04-15T03:17:44.658Z,6.50
2023-04-15T03:20:11.704Z,2.75
2023-04-15T03:22:38.629Z,3.00
2023-04-15T03:25:05.948Z,2.00
2023-04-15T03:27:32.884Z,2.00
2023-04-15T03:29:59.779Z,1.00
2023-04-15T03:32:27.488Z,7.00
2023-04-15T03:34:54.412Z,12.75
2023-04-15T03:37:21.306Z,10.75
2023-04-15T03:39:48.199Z,9.50
2023-04-15T03:42:15.115Z,12.25
2023-04-15T03:44:42.494Z,10.00
2023-04-15T03:47:09.407Z,11.25
2023-04-15T03:49:37.154Z,10.75
2023-04-15T03:52:04.124Z,13.50
2023-04-15T03:54:31.241Z,18.00
2023-04-15T03:56:58.145Z,13.25
2023-04-15T03:59:25.106Z,14.00
2023-04-15T04:01:52.257Z,18.75
2023-04-15T04:04:19.330Z,14.75
2023-04-15T04:06:46.391Z,13.75
2023-04-15T04:09:13.262Z,14.25
2023-04-15T04:11:40.166Z,12.75
2023-04-15T04:14:07.492Z,10.00
2023-04-15T04:16:34.481Z,15.00
2023-04-15T04:19:02.180Z,21.75
2023-04-15T04:21:29.615Z,18.00
2023-04-15T04:23:56.992Z,18.00
2023-04-15T04:26:23.928Z,13.00
2023-04-15T04:28:50.953Z,9.50
2023-04-15T04:31:17.914Z,8.25
2023-04-15T04:33:44.801Z,9.75
2023-04-15T04:36:11.838Z,6.50
2023-04-15T04:38:38.753Z,11.75
2023-04-15T04:41:06.159Z,14.75
2023-04-15T04:43:33.029Z,15.00
2023-04-15T04:45:59.987Z,15.00
2023-04-15T04:48:27.363Z,16.00
2023-04-15T04:50:54.469Z,13.00
2023-04-15T04:53:21.386Z,13.75
2023-04-15T04:55:48.306Z,18.00
2023-04-15T04:58:15.225Z,16.50
2023-04-15T05:00:42.314Z,15.00
2023-04-15T05:03:09.498Z,15.00
2023-04-15T05:05:39.599Z,18.50
2023-04-15T05:08:06.705Z,12.75
2023-04-15T05:10:33.740Z,11.25
2023-04-15T05:13:00.670Z,7.00
2023-04-15T05:15:27.560Z,7.00
2023-04-15T05:17:54.720Z,4.50
2023-04-15T05:20:22.027Z,8.50
2023-04-15T05:22:48.964Z,15.75
2023-04-15T05:25:16.612Z,10.00
2023-04-15T05:27:43.551Z,16.25
2023-04-15T05:30:12.785Z,14.25
2023-04-15T05:32:41.358Z,9.75
2023-04-15T05:35:08.783Z,9.50
2023-04-15T05:37:36.454Z,7.75
2023-04-15T05:40:04.652Z,7.00
2023-04-15T05:42:31.648Z,7.00
2023-04-15T05:44:58.590Z,8.00
2023-04-15T05:47:25.510Z,4.00
2023-04-15T05:49:52.452Z,3.75
2023-04-15T05:52:19.350Z,5.00
2023-04-15T05:54:46.824Z,7.50
2023-04-15T05:57:13.710Z,8.00
2023-04-15T05:59:42.362Z,5.00
2023-04-15T06:02:10.373Z,8.00
2023-04-15T06:04:37.478Z,7.75
2023-04-15T06:07:04.415Z,8.00
2023-04-15T06:09:31.384Z,5.50
2023-04-15T06:11:59.267Z,9.75
2023-04-15T06:14:26.282Z,15.25
2023-04-15T06:16:53.187Z,14.00
2023-04-15T06:19:20.662Z,12.50
2023-04-15T06:21:47.651Z,10.00
2023-04-15T06:24:14.628Z,10.50
2023-04-15T06:26:41.783Z,10.00
2023-04-15T06:29:08.631Z,10.25
2023-04-15T06:31:35.524Z,10.50
2023-04-15T06:34:02.554Z,6.00
2023-04-15T06:36:29.489Z,10.00
2023-04-15T06:38:57.299Z,11.50
2023-04-15T06:41:24.515Z,11.50
2023-04-15T06:43:51.727Z,8.25
2023-04-15T06:46:18.760Z,10.00
2023-04-15T06:48:45.800Z,9.50
2023-04-15T06:51:12.912Z,6.00
2023-04-15T06:53:42.172Z,5.00
2023-04-15T06:56:09.921Z,7.00
2023-04-15T06:58:36.882Z,7.00
2023-04-15T07:01:04.720Z,4.25
2023-04-15T07:03:32.938Z,6.00
2023-04-15T07:06:00.120Z,5.50
2023-04-15T07:08:27.030Z,5.25
2023-04-15T07:10:54.417Z,8.00
2023-04-15T07:13:21.348Z,8.75
2023-04-15T07:15:48.204Z,8.75
2023-04-15T07:18:15.094Z,6.00
2023-04-15T07:20:42.011Z,5.00
2023-04-15T07:23:09.004Z,7.00
2023-04-15T07:25:35.888Z,8.25
2023-04-15T07:28:02.886Z,4.75
2023-04-15T07:30:29.816Z,5.50
2023-04-15T07:32:58.982Z,7.00
2023-04-15T07:35:26.827Z,5.00
2023-04-15T07:37:53.687Z,5.25
2023-04-15T07:40:20.620Z,4.50
2023-04-15T07:42:49.619Z,5.75
2023-04-15T07:45:17.181Z,6.25
2023-04-15T07:47:44.101Z,6.50
2023-04-15T07:50:11.665Z,6.00
2023-04-15T07:52:41.645Z,4.00
2023-04-15T07:55:09.364Z,1.00
2023-04-15T07:57:37.085Z,3.00
2023-04-15T08:00:06.009Z,1.75
2023-04-15T08:02:33.029Z,2.00
2023-04-15T08:05:00.261Z,1.00
2023-04-15T08:07:27.618Z,2.00
2023-04-15T08:09:54.596Z,1.00
2023-04-15T08:12:21.908Z,1.00
2023-04-15T08:14:51.396Z,0.00
2023-04-15T08:17:18.351Z,1.00
2023-04-15T08:19:45.219Z,1.00
2023-04-15T08:22:17.712Z,1.00
2023-04-15T08:24:45.938Z,1.00
2023-04-15T08:27:12.939Z,1.00
2023-04-15T08:29:40.901Z,0.00
2023-04-15T08:32:08.020Z,0.00
2023-04-15T08:34:35.216Z,0.00
2023-04-15T08:37:02.102Z,0.00
2023-04-15T08:39:29.028Z,1.33
2023-04-15T08:42:03.899Z,0.00
2023-04-15T08:44:34.129Z,1.67
2023-04-15T08:47:03.126Z,1.00
2023-04-15T08:49:30.883Z,1.00
2023-04-15T08:52:01.769Z,0.67
2023-04-15T08:54:29.238Z,0.00
2023-04-15T08:56:58.757Z,0.00
2023-04-15T08:59:26.042Z,0.00
2023-04-15T09:01:53.793Z,0.00
2023-04-15T09:04:21.221Z,0.00
2023-04-15T09:06:48.149Z,0.00
2023-04-15T09:09:15.096Z,0.00
2023-04-15T09:11:42.885Z,1.00
2023-04-15T09:14:09.835Z,0.00
2023-04-15T09:17:03.760Z,0.00
2023-04-15T09:19:33.682Z,0.00
2023-04-15T09:22:00.744Z,1.00
2023-04-15T09:24:38.886Z,0.00
2023-04-15T09:27:06.667Z,0.00
2023-04-15T09:29:33.928Z,0.00
2023-04-15T09:32:11.579Z,0.00
2023-04-15T09:34:38.716Z,0.33
2023-04-15T09:37:07.586Z,0.00
2023-04-15T09:40:00.915Z,0.00
2023-04-15T09:42:28.247Z,1.00
2023-04-15T09:44:55.361Z,2.00
2023-04-15T09:47:29.696Z,1.33
2023-04-15T09:49:58.136Z,2.33
2023-04-15T09:52:25.229Z,1.33
2023-04-15T09:54:57.479Z,1.67
2023-04-15T09:57:24.692Z,1.00
2023-04-15T09:59:52.306Z,0.00
2023-04-15T10:02:23.401Z,1.00
2023-04-15T10:04:52.063Z,1.00
2023-04-15T10:07:22.886Z,1.67
2023-04-15T10:09:50.193Z,1.00
2023-04-15T10:12:21.090Z,1.00
2023-04-15T10:14:59.061Z,2.00
2023-04-15T10:17:31.244Z,3.00
2023-04-15T10:20:01.940Z,3.00
2023-04-15T10:22:29.836Z,2.00
2023-04-15T10:24:57.610Z,1.00
2023-04-15T10:27:24.964Z,0.00
2023-04-15T10:29:52.063Z,4.00
2023-04-15T10:32:21.974Z,0.33
2023-04-15T10:34:52.458Z,1.67
2023-04-15T10:37:35.215Z,2.00
2023-04-15T10:40:03.177Z,1.00
2023-04-15T10:42:35.686Z,1.00
2023-04-15T10:45:02.711Z,1.00
2023-04-15T10:47:29.645Z,0.00
2023-04-15T10:50:01.381Z,1.00
2023-04-15T10:52:29.595Z,3.00
2023-04-15T10:55:04.754Z,2.67
2023-04-15T10:57:42.541Z,3.00
2023-04-15T11:00:09.549Z,3.00
2023-04-15T11:02:45.196Z,3.00
2023-04-15T11:05:14.336Z,2.00
2023-04-15T11:07:49.286Z,2.00
2023-04-15T11:10:22.051Z,1.00
2023-04-15T11:12:53.198Z,2.67
2023-04-15T11:15:39.253Z,2.00
2023-04-15T11:18:26.542Z,3.00
2023-04-15T11:20:57.552Z,3.00
2023-04-15T11:23:32.910Z,2.00
2023-04-15T11:26:01.713Z,3.00
2023-04-15T11:28:30.760Z,4.00
2023-04-15T11:30:58.952Z,2.00
2023-04-15T11:33:26.238Z,2.67
2023-04-15T11:35:55.202Z,2.33
2023-04-15T11:38:22.660Z,2.00
2023-04-15T11:40:51.911Z,2.67
2023-04-15T11:43:21.363Z,3.00
2023-04-15T11:45:54.515Z,3.00
2023-04-15T11:48:25.092Z,3.00
2023-04-15T11:51:02.955Z,3.00
2023-04-15T11:53:49.355Z,2.00
2023-04-15T11:56:21.415Z,3.00
2023-04-15T11:58:51.005Z,2.00
2023-04-15T12:01:18.109Z,2.50
2023-04-15T12:03:52.409Z,3.00
2023-04-15T12:06:21.636Z,2.00
2023-04-15T12:09:06.989Z,1.00
2023-04-15T12:11:39.879Z,3.00
2023-04-15T12:14:13.520Z,4.00
2023-04-15T12:16:48.271Z,3.00
2023-04-15T12:19:25.571Z,2.00
2023-04-15T12:22:03.614Z,2.00
2023-04-15T12:24:36.146Z,2.00
2023-04-15T12:27:07.042Z,2.00
2023-04-15T12:29:35.785Z,2.00
2023-04-15T12:32:08.599Z,1.00
2023-04-15T12:34:39.675Z,0.00
2023-04-15T12:37:11.752Z,1.00
2023-04-15T12:39:41.389Z,2.00
2023-04-15T12:42:09.742Z,1.00
2023-04-15T12:44:38.085Z,2.00
2023-04-15T12:47:05.701Z,3.00
2023-04-15T12:49:33.806Z,3.00
2023-04-15T12:52:02.775Z,2.00
2023-04-15T12:54:31.228Z,2.67
2023-04-15T12:56:59.380Z,2.00
2023-04-15T12:59:26.456Z,2.00
2023-04-15T13:01:54.133Z,2.00
2023-04-15T13:04:22.497Z,3.00
2023-04-15T13:06:49.869Z,2.00
2023-04-15T13:09:17.009Z,2.00
2023-04-15T13:11:44.415Z,3.00
2023-04-15T13:14:14.113Z,2.00
2023-04-15T13:16:41.700Z,2.00
2023-04-15T13:19:08.919Z,2.00
2023-04-15T13:21:36.554Z,2.00
2023-04-15T13:24:04.420Z,2.33
2023-04-15T13:26:32.161Z,3.00
2023-04-15T13:28:59.384Z,3.33
2023-04-15T13:31:26.466Z,2.33
2023-04-15T13:33:53.604Z,2.00
2023-04-15T13:36:20.794Z,3.00
2023-04-15T13:38:50.468Z,3.67
2023-04-15T13:41:18.224Z,3.00
2023-04-15T13:43:45.170Z,2.00
2023-04-15T13:46:12.233Z,2.00
2023-04-15T13:48:39.259Z,2.00
2023-04-15T13:51:06.321Z,2.00
2023-04-15T13:53:38.280Z,2.00
2023-04-15T13:56:10.522Z,1.00
2023-04-15T13:58:38.430Z,1.00
2023-04-15T14:01:07.317Z,3.00
2023-04-15T14:03:37.388Z,3.00
2023-04-15T14:06:06.299Z,3.00
2023-04-15T14:08:33.768Z,2.00
2023-04-15T14:11:00.838Z,3.00
2023-04-15T14:13:27.730Z,5.00
2023-04-15T14:15:55.343Z,4.00
2023-04-15T14:18:22.332Z,3.00
2023-04-15T14:20:49.310Z,3.00
2023-04-15T14:23:16.389Z,3.00
2023-04-15T14:25:44.124Z,3.00
2023-04-15T14:28:11.971Z,4.00
2023-04-15T14:30:38.949Z,3.00
2023-04-15T14:33:05.958Z,2.00
2023-04-15T14:35:33.117Z,3.00
2023-04-15T14:38:00.062Z,2.75
2023-04-15T14:40:27.019Z,2.00
2023-04-15T14:42:53.912Z,2.00
2023-04-15T14:45:21.046Z,3.25
2023-04-15T14:47:48.232Z,4.00
2023-04-15T14:50:15.137Z,3.00
2023-04-15T14:52:42.076Z,2.75
2023-04-15T14:55:11.371Z,2.00
2023-04-15T14:57:39.334Z,3.00
2023-04-15T15:00:07.707Z,2.25
2023-04-15T15:02:39.606Z,4.00
2023-04-15T15:05:08.557Z,3.75
2023-04-15T15:07:37.488Z,3.00
2023-04-15T15:10:04.855Z,3.75
2023-04-15T15:12:32.704Z,4.00
2023-04-15T15:15:00.514Z,3.00
2023-04-15T15:17:28.646Z,2.25
2023-04-15T15:19:57.114Z,4.00
2023-04-15T15:22:24.169Z,2.25
2023-04-15T15:24:51.079Z,3.00
2023-04-15T15:27:18.046Z,3.25
2023-04-15T15:29:45.000Z,4.25
2023-04-15T15:32:12.009Z,4.00
2023-04-15T15:34:38.945Z,3.75
2023-04-15T15:37:06.548Z,4.00
2023-04-15T15:39:34.363Z,4.00
2023-04-15T15:42:03.336Z,4.00
2023-04-15T15:44:30.253Z,4.00
2023-04-15T15:46:57.268Z,3.50
2023-04-15T15:49:26.088Z,4.00
2023-04-15T15:51:52.949Z,3.00
2023-04-15T15:54:19.892Z,4.75
2023-04-15T15:56:46.804Z,5.00
2023-04-15T15:59:13.713Z,3.00
2023-04-15T16:01:52.539Z,4.00
2023-04-15T16:04:19.771Z,4.00
2023-04-15T16:06:47.082Z,3.50
2023-04-15T16:09:14.152Z,4.00
2023-04-15T16:11:41.836Z,3.25
2023-04-15T16:14:08.750Z,2.00
2023-04-15T16:16:35.813Z,3.00
2023-04-15T16:19:03.077Z,3.00
2023-04-15T16:21:31.414Z,4.00
2023-04-15T16:23:58.428Z,5.00
2023-04-15T16:26:25.360Z,8.00
2023-04-15T16:28:52.273Z,4.50
2023-04-15T16:31:19.177Z,7.00
2023-04-15T16:33:46.169Z,6.50
2023-04-15T16:36:13.029Z,5.50
2023-04-15T16:38:39.940Z,6.00
2023-04-15T16:41:06.932Z,4.00
2023-04-15T16:43:33.890Z,3.75
2023-04-15T16:46:00.785Z,3.00
2023-04-15T16:48:27.791Z,3.25
2023-04-15T16:50:54.741Z,2.00
2023-04-15T16:53:21.648Z,3.00
2023-04-15T16:55:48.583Z,3.00
2023-04-15T16:58:15.657Z,4.00
2023-04-15T17:00:42.671Z,6.00
2023-04-15T17:03:09.727Z,5.00
2023-04-15T17:05:36.790Z,4.00
2023-04-15T17:08:05.235Z,6.50
2023-04-15T17:10:32.201Z,3.00
2023-04-15T17:12:59.904Z,3.25
2023-04-15T17:15:27.664Z,5.00
2023-04-15T17:17:54.825Z,3.00
2023-04-15T17:20:21.817Z,2.00
2023-04-15T17:22:49.612Z,2.00
2023-04-15T17:25:17.797Z,3.00
2023-04-15T17:27:45.941Z,2.50
2023-04-15T17:30:12.916Z,3.00
2023-04-15T17:32:41.800Z,2.00
2023-04-15T17:35:11.455Z,2.00
2023-04-15T17:37:40.861Z,2.50
2023-04-15T17:40:10.504Z,2.00
2023-04-15T17:42:38.389Z,1.25
2023-04-15T17:45:06.024Z,2.00
2023-04-15T17:47:32.986Z,2.00
2023-04-15T17:50:02.116Z,3.25
2023-04-15T17:52:31.374Z,4.75
2023-04-15T17:55:00.660Z,6.50
2023-04-15T17:57:29.212Z,7.25
2023-04-15T17:59:57.129Z,11.75
2023-04-15T18:02:25.274Z,11.00
2023-04-15T18:04:54.480Z,8.00
2023-04-15T18:07:23.166Z,5.25
2023-04-15T18:09:51.677Z,8.00
2023-04-15T18:12:20.646Z,6.25
2023-04-15T18:14:49.958Z,5.00
2023-04-15T18:17:19.097Z,8.00
2023-04-15T18:19:46.869Z,22.25
2023-04-15T18:22:15.795Z,19.50
2023-04-15T18:24:44.581Z,16.25
2023-04-15T18:27:12.460Z,15.25
2023-04-15T18:29:41.707Z,16.25
2023-04-15T18:32:11.646Z,22.50
2023-04-15T18:34:39.359Z,22.25
2023-04-15T18:37:08.173Z,12.00
2023-04-15T18:39:35.585Z,14.50
2023-04-15T18:42:04.775Z,15.00
2023-04-15T18:44:33.155Z,10.25
2023-04-15T18:47:03.329Z,15.50
2023-04-15T18:49:34.437Z,16.00
2023-04-15T18:52:03.568Z,18.00
2023-04-15T18:54:32.048Z,17.25
2023-04-15T18:57:00.635Z,18.75
2023-04-15T18:59:30.173Z,20.50
2023-04-15T19:02:03.777Z,18.00
2023-04-15T19:04:31.351Z,16.25
2023-04-15T19:07:00.656Z,16.00
2023-04-15T19:09:31.137Z,17.25
2023-04-15T19:11:59.648Z,16.00
2023-04-15T19:14:27.704Z,17.75
2023-04-15T19:16:55.666Z,18.00
2023-04-15T19:19:22.682Z,12.00
2023-04-15T19:21:50.479Z,11.25
2023-04-15T19:24:18.369Z,11.50
2023-04-15T19:26:48.629Z,10.00
2023-04-15T19:29:15.618Z,10.25
2023-04-15T19:31:42.488Z,13.25
2023-04-15T19:34:09.475Z,15.50
2023-04-15T19:37:25.898Z,10.25
2023-04-15T19:39:54.956Z,9.25
2023-04-15T19:42:21.885Z,7.75
2023-04-15T19:44:48.872Z,6.00
2023-04-15T19:47:16.155Z,5.00
2023-04-15T19:49:43.112Z,5.50
2023-04-15T19:52:10.033Z,5.00
2023-04-15T19:54:37.205Z,6.00
2023-04-15T19:57:04.205Z,7.00
2023-04-15T19:59:31.212Z,4.00
2023-04-15T20:01:58.220Z,4.25
2023-04-15T20:04:25.329Z,9.00
2023-04-15T20:06:52.260Z,10.75
2023-04-15T20:09:19.138Z,5.00
2023-04-15T20:12:46.905Z,8.00
2023-04-15T20:14:35.878Z,11.00
2023-04-15T20:17:02.801Z,7.75
2023-04-15T20:19:29.674Z,4.25
2023-04-15T20:21:56.618Z,4.00
2023-04-15T20:24:24.530Z,5.50
2023-04-15T20:26:51.460Z,4.00
2023-04-15T20:29:18.360Z,5.50
2023-04-15T20:31:45.421Z,13.75
2023-04-15T20:34:12.368Z,12.75
2023-04-15T20:36:39.353Z,11.50
2023-04-15T20:39:06.394Z,14.25
2023-04-15T20:41:33.494Z,13.25
2023-04-15T20:44:00.609Z,11.00
2023-04-15T20:46:27.945Z,8.00
2023-04-15T20:48:55.829Z,1.00
2023-04-15T20:51:22.810Z,7.75
2023-04-15T20:53:50.057Z,7.00
2023-04-15T20:56:16.984Z,4.50
2023-04-15T20:58:43.876Z,4.50
2023-04-15T21:01:10.788Z,8.75
2023-04-15T21:03:37.844Z,7.25
2023-04-15T21:06:04.932Z,3.75
2023-04-15T21:08:31.908Z,4.00
2023-04-15T21:10:58.963Z,3.00
2023-04-15T21:13:25.916Z,7.00
2023-04-15T21:15:54.491Z,14.50
2023-04-15T21:18:21.986Z,14.75
2023-04-15T21:21:02.812Z,14.00
2023-04-15T21:23:30.502Z,10.00
2023-04-15T21:25:57.789Z,8.50
2023-04-15T21:28:24.871Z,8.25
2023-04-15T21:30:51.764Z,12.00
2023-04-15T21:33:20.521Z,10.00
2023-04-15T21:35:47.472Z,11.25
2023-04-15T21:38:14.864Z,17.00
2023-04-15T21:40:41.838Z,12.00
2023-04-15T21:43:08.756Z,11.25
2023-04-15T21:45:36.208Z,13.00
2023-04-15T21:48:08.002Z,17.25
2023-04-15T21:50:38.590Z,13.75
2023-04-15T21:53:08.377Z,13.00
2023-04-15T21:55:36.301Z,11.25
2023-04-15T21:58:03.183Z,7.25
2023-04-15T22:00:30.124Z,8.00
2023-04-15T22:02:57.238Z,9.25
2023-04-15T22:05:25.295Z,11.25
2023-04-15T22:07:52.297Z,9.25
2023-04-15T22:10:20.990Z,5.25
2023-04-15T22:12:47.916Z,5.00
2023-04-15T22:15:17.238Z,4.75
2023-04-15T22:17:44.150Z,6.00
2023-04-15T22:20:11.222Z,7.00
2023-04-15T22:22:43.787Z,8.25
2023-04-15T22:25:12.189Z,9.25
2023-04-15T22:27:39.122Z,9.00
2023-04-15T22:30:06.779Z,4.50
2023-04-15T22:32:33.741Z,4.25
2023-04-15T22:35:01.641Z,6.00
2023-04-15T22:37:31.308Z,6.25
2023-04-15T22:39:58.250Z,7.50
2023-04-15T22:42:25.527Z,5.50
2023-04-15T22:44:52.510Z,6.50
2023-04-15T22:47:20.016Z,8.00
2023-04-15T22:49:46.894Z,7.25
2023-04-15T22:52:23.459Z,3.00
2023-04-15T22:54:56.791Z,6.00
2023-04-15T22:57:23.844Z,6.00
2023-04-15T22:59:51.128Z,3.00
2023-04-15T23:02:18.160Z,7.25
2023-04-15T23:04:45.649Z,2.00
2023-04-15T23:07:12.651Z,11.75
2023-04-15T23:09:40.106Z,11.50
2023-04-15T23:12:07.464Z,9.50
2023-04-15T23:14:34.388Z,9.00
2023-04-15T23:17:01.277Z,15.25
2023-04-15T23:19:28.193Z,13.00
2023-04-15T23:21:55.145Z,7.50
2023-04-15T23:24:22.104Z,9.25
2023-04-15T23:26:49.010Z,8.00
2023-04-15T23:29:15.930Z,9.00
2023-04-15T23:31:42.861Z,10.00
2023-04-15T23:34:09.912Z,7.50
2023-04-15T23:36:37.096Z,3.00
2023-04-15T23:39:06.487Z,3.00
2023-04-15T23:41:33.408Z,5.50
2023-04-15T23:44:00.297Z,6.00
2023-04-15T23:46:27.459Z,7.00
2023-04-15T23:48:54.511Z,6.25
2023-04-15T23:51:21.373Z,4.50
2023-04-15T23:53:49.583Z,7.25
2023-04-15T23:56:16.480Z,4.50
2023-04-15T23:58:43.367Z,8.00
